Sunday, December 16, 2018, 10:29 AM EST
Back to Local

KIDI, Indiana / Stewart Field

Location: Indiana, PA, United States Lat: 40.633
Local Time: 10:29 AM EST (15:29 GMT) Lon: -79.1
Time Zone: US/Eastern Elev: 1407 ft

Show me the last for .
Show Decoded

2018-12-16 10:15 METAR KIDI 161515Z AUTO 08005KT 4SM BR SCT008 OVC012 03/03 A2995 RMK A01 =
2018-12-16 09:55 METAR KIDI 161455Z AUTO 07006KT 2SM BR SCT008 OVC013 03/03 A2996 RMK A01 =
2018-12-16 09:35 METAR KIDI 161435Z AUTO 08006KT 3SM BR FEW008 OVC014 03/03 A2997 RMK A01 =
2018-12-16 09:15 METAR KIDI 161415Z AUTO VRB05KT 5SM BR SCT008 OVC013 03/03 A2997 RMK A01 =
2018-12-16 08:55 METAR KIDI 161355Z AUTO VRB05G11KT 4SM BR SCT009 OVC015 03/03 A2997 RMK A01 =
2018-12-16 08:35 METAR KIDI 161335Z AUTO VRB06KT 9SM SCT009 OVC015 03/03 A2996 RMK A01 =
2018-12-16 08:15 METAR KIDI 161315Z AUTO 07005KT 8SM SCT009 OVC013 03/03 A2996 RMK A01 =
2018-12-16 07:55 METAR KIDI 161255Z AUTO VRB06G11KT 10SM OVC013 03/03 A2996 RMK A01 =
2018-12-16 07:35 METAR KIDI 161235Z AUTO 08005G13KT 10SM SCT010 OVC014 03/03 A2996 RMK A01 =
2018-12-16 07:15 METAR KIDI 161215Z AUTO 07006KT 10SM OVC012 03/03 A2996 RMK A01 =
2018-12-16 06:55 METAR KIDI 161155Z AUTO 07007G12KT 10SM SCT009 OVC014 03/03 A2996 RMK A01 =
2018-12-16 06:35 METAR KIDI 161135Z AUTO 08010KT 10SM BKN009 OVC014 03/03 A2995 RMK A01 =
2018-12-16 06:15 METAR KIDI 161115Z AUTO 09008KT 060V120 6SM BR BKN010 OVC015 03/03 A2996 RMK A01
                 =
2018-12-16 05:55 METAR KIDI 161055Z AUTO 07008G14KT 050V110 3SM BR BKN009 OVC014 03/03 A2996 RMK
                 A01 =
2018-12-16 05:35 METAR KIDI 161035Z AUTO 08009KT 3SM BR BKN009 BKN014 OVC037 03/03 A2996 RMK A01
                 =
2018-12-16 05:15 METAR KIDI 161015Z AUTO 08006G13KT 3SM BR SCT009 BKN023 OVC035 03/03 A2996 RMK
                 A01 =
2018-12-16 04:55 METAR KIDI 160955Z AUTO 08007G13KT 4SM BR SCT009 OVC033 03/03 A2996 RMK A01 =
2018-12-16 04:35 METAR KIDI 160935Z AUTO 08007G12KT 4SM BR SCT009 OVC035 03/03 A2996 RMK A01 =
2018-12-16 04:15 METAR KIDI 160915Z AUTO 09007G13KT 6SM BR BKN009 BKN014 OVC039 03/03 A2996 RMK
                 A01 =
2018-12-16 03:55 METAR KIDI 160855Z AUTO 08009KT 4SM BR BKN009 BKN014 OVC040 04/03 A2996 RMK A01
                 =
2018-12-16 03:35 METAR KIDI 160835Z AUTO 08008KT 4SM BR BKN010 OVC014 04/03 A2997 RMK A01 =
2018-12-16 03:15 METAR KIDI 160815Z AUTO 09009KT 050V110 5SM BR OVC010 04/03 A2998 RMK A01 =
2018-12-16 02:55 METAR KIDI 160755Z AUTO 08008KT 030V110 5SM BR BKN010 BKN013 OVC038 04/03 A2998
                 RMK A01 =
2018-12-16 02:35 METAR KIDI 160735Z AUTO 08007G13KT 5SM BR SCT010 BKN043 OVC060 04/03 A2997 RMK
                 A01 =
2018-12-16 02:15 METAR KIDI 160715Z AUTO 08011G16KT 4SM BR FEW010 BKN047 OVC060 04/03 A2997 RMK
                 A01 =
2018-12-16 01:55 METAR KIDI 160655Z AUTO 08011G17KT 5SM BR SCT011 SCT036 OVC055 04/04 A2997 RMK
                 A01 =
2018-12-16 01:35 METAR KIDI 160635Z AUTO 09012KT 6SM BR SCT010 BKN037 OVC055 04/04 A2997 RMK A01
                 =
2018-12-16 01:15 METAR KIDI 160615Z AUTO 09011G17KT 3SM BR BKN010 BKN033 OVC055 04/04 A2997 RMK
                 A01 =
2018-12-16 00:55 METAR KIDI 160555Z AUTO 09008G14KT 060V120 4SM BR BKN010 BKN015 OVC055 04/04
                 A2997 RMK A01 =
2018-12-16 00:35 METAR KIDI 160535Z AUTO 07008G13KT 030V100 4SM BR SCT010 BKN015 OVC060 04/04
                 A2998 RMK A01 =
2018-12-16 00:15 METAR KIDI 160515Z AUTO 07007G12KT 5SM BR SCT011 BKN050 OVC065 04/04 A2998 RMK
                 A01 =
2018-12-15 23:55 METAR KIDI 160455Z AUTO 08008KT 6SM BR SCT011 BKN055 OVC065 04/04 A3000 RMK A01
                 =
2018-12-15 23:35 METAR KIDI 160435Z AUTO 07008G15KT 10SM FEW046 OVC070 05/04 A3000 RMK A01 =
2018-12-15 23:15 METAR KIDI 160415Z AUTO 09010KT 10SM FEW015 FEW029 OVC070 05/04 A3001 RMK A01 =
2018-12-15 22:55 METAR KIDI 160355Z AUTO 09010KT 8SM FEW029 SCT050 OVC075 05/03 A3001 RMK A01 =
2018-12-15 22:35 METAR KIDI 160335Z AUTO 08009G15KT 040V100 10SM BKN055 OVC070 05/04 A3001 RMK
                 A01 =
2018-12-15 22:15 METAR KIDI 160315Z AUTO 08008G15KT 10SM FEW018 BKN060 OVC070 05/03 A3002 RMK A01
                 =
2018-12-15 21:55 METAR KIDI 160255Z AUTO 08009G15KT 10SM FEW019 OVC070 05/03 A3003 RMK A01 =
2018-12-15 21:35 METAR KIDI 160235Z AUTO 09010KT 10SM SCT050 SCT065 OVC075 05/04 A3003 RMK A01 =
2018-12-15 21:15 METAR KIDI 160215Z AUTO 08011G18KT 9SM FEW028 SCT041 BKN050 05/04 A3003 RMK A01
                 =
2018-12-15 20:55 METAR KIDI 160155Z AUTO 08010G16KT 7SM SCT016 BKN038 OVC080 05/04 A3003 RMK A01
                 =
2018-12-15 20:35 METAR KIDI 160135Z AUTO 08008G14KT 10SM BKN016 BKN049 OVC065 06/05 A3004 RMK A01
                 =
2018-12-15 20:15 METAR KIDI 160115Z AUTO 07007KT 8SM SCT016 BKN048 OVC085 06/05 A3004 RMK A01 =
2018-12-15 19:55 METAR KIDI 160055Z AUTO 07005G11KT 10SM FEW034 BKN050 OVC085 06/05 A3004 RMK A01
                 =
2018-12-15 19:35 METAR KIDI 160035Z AUTO 07007G13KT 10SM SCT049 BKN075 OVC085 06/05 A3005 RMK A01
                 =
2018-12-15 19:15 METAR KIDI 160015Z AUTO 09008KT 10SM FEW041 SCT049 OVC085 06/05 A3005 RMK A01 =
2018-12-15 18:55 METAR KIDI 152355Z AUTO 08010G19KT 9SM SCT039 BKN050 OVC065 06/06 A3005 RMK A01
                 =
2018-12-15 18:35 METAR KIDI 152335Z AUTO 08010KT 6SM BR FEW033 SCT041 BKN050 06/06 A3006 RMK A01
                 =
2018-12-15 18:15 METAR KIDI 152315Z AUTO 07007G14KT 6SM BR SCT011 SCT037 OVC065 06/06 A3006 RMK
                 A01 =
2018-12-15 17:55 METAR KIDI 152255Z AUTO 09009G16KT 6SM BR BKN009 OVC015 07/06 A3007 RMK A01 =
2018-12-15 17:35 METAR KIDI 152235Z AUTO 08009KT 7SM OVC007 07/07 A3007 RMK A01 =
2018-12-15 17:15 METAR KIDI 152215Z AUTO 06005KT 10SM BKN008 OVC022 07/07 A3007 RMK A01 =
2018-12-15 16:55 METAR KIDI 152155Z AUTO 06007KT 8SM FEW008 SCT023 BKN050 08/07 A3006 RMK A01 =
2018-12-15 16:35 METAR KIDI 152135Z AUTO 06008KT 8SM BKN050 OVC070 08/07 A3006 RMK A01 =
2018-12-15 16:15 METAR KIDI 152115Z AUTO 07008KT 7SM FEW042 OVC070 08/08 A3005 RMK A01 =
2018-12-15 15:55 METAR KIDI 152055Z AUTO 09008KT 5SM BR FEW015 SCT050 OVC075 08/08 A3005 RMK A01
                 =
2018-12-15 15:35 METAR KIDI 152035Z AUTO 10006G14KT 6SM BR SCT015 BKN050 OVC075 09/08 A3005 RMK
                 A01 =
2018-12-15 15:15 METAR KIDI 152015Z AUTO 11003KT 10SM SCT013 BKN050 OVC075 08/08 A3004 RMK A01 =
2018-12-15 14:55 METAR KIDI 151955Z AUTO 10006KT 10SM BKN013 OVC080 08/08 A3002 RMK A01 =
2018-12-15 14:35 METAR KIDI 151935Z AUTO 10009G15KT 10SM FEW011 OVC085 08/07 A3001 RMK A01 =
2018-12-15 14:15 METAR KIDI 151915Z AUTO 10009G16KT 10SM SCT010 SCT048 BKN080 08/07 A3002 RMK A01
                 =
2018-12-15 13:55 METAR KIDI 151855Z AUTO 09012KT 9SM SCT009 SCT033 BKN075 08/07 A3003 RMK A01 =
2018-12-15 13:15 METAR KIDI 151815Z AUTO 08010KT 050V110 4SM BR FEW008 SCT040 BKN055 08/07 A3006
                 RMK A01 =
2018-12-15 12:55 METAR KIDI 151755Z AUTO 08009KT 4SM BR SCT040 BKN050 OVC065 08/08 A3008 RMK A01
                 =
2018-12-15 12:35 METAR KIDI 151735Z AUTO 10010KT 5SM BR SCT038 SCT043 OVC050 08/08 A3009 RMK A01
                 =
2018-12-15 12:15 METAR KIDI 151715Z AUTO 09008G13KT 4SM BR SCT039 BKN046 OVC065 08/08 A3010 RMK
                 A01 =
2018-12-15 11:55 METAR KIDI 151655Z AUTO 10007G15KT 4SM BR SCT007 BKN042 OVC047 07/07 A3011 RMK
                 A01 =
2018-12-15 11:35 METAR KIDI 151635Z AUTO 09009G14KT 6SM BR BKN008 OVC043 07/07 A3012 RMK A01 =
2018-12-15 11:15 METAR KIDI 151615Z AUTO 09009G14KT 6SM BR BKN008 OVC018 07/07 A3013 RMK A01 =
2018-12-15 10:55 METAR KIDI 151555Z AUTO 09010G16KT 6SM BR BKN007 BKN011 OVC015 07/07 A3013 RMK
                 A01 =
2018-12-15 10:35 METAR KIDI 151535Z AUTO 08011KT 7SM BKN006 BKN017 OVC070 07/07 A3013 RMK A01 =

Support USWX by starting your Amazon purchase here.